Pagrindinis puslapis
METAR-TAF:

METAR-TAF

Oro uostai :

General Santos, Filipinai

platuma: 06-03-29N, ilguma: 125-05-46E, Aukštis: 154 m

Dabartinis oras

Ataskaita buvo paskelbta 1 valandą ir 28 minutes, ne 09:00 UTC
Ramus vėjas
Temperatūra 25°C
Drėgmė 94%
Slėgis 1006 hPa
Matomumas 10 km arba daugiau
Išsisklaidę debesys ne aukštis 1800 ft
Apsiniaukę ne aukštis 8000 ft
lietus

METAR: RPMR 170900Z 00000KT 9999 -RA SCT018 OVC080 25/24 Q1006 RMK A2971

Laikas: 18:28 (10:28 UTC)

Prognozė

Ataskaita buvo paskelbta 5 valandos ir 28 minutes, ne 05:00 UTC
Prognozė galioja nuo 17 metu 06 UTC su 18 metu 06 UTC
Vėjas 5 kt iš Pietų
Matomumas 10 km arba daugiau
Mažai debesys ne aukštis 1800 ft
Su prošvaistėmis ne aukštis 8000 ft
Laikinai
nuo 17 metu 06 UTC su 17 metu 12 UTC
Vėjas 12 kt iš Šiaurės Rytų
Mažai debesys ne aukštis 1700 ft, Liūtiniai kamuoliniai debesys.
Išsisklaidę debesys ne aukštis 1800 ft
Apsiniaukę ne aukštis 8000 ft
perkūnija, lietus

TAF: RPMR 170500Z 1706/1806 17005KT 9999 FEW018 BKN080 TEMPO 1706/1712 05012KT -TSRA FEW017CB SCT018 OVC080

Orai ataskaitas ir orų prognozės (METAR, TAF).

turimą stotys yra geltonos ir raudonos taškus žemėlapyje.

Perkelti pele per norėdami pamatyti stoties vardą.

Tada spustelėkite, norėdami matyti oro stebėjimo ir prognozės.

Norėdami pakeisti žemėlapį: spustelėkite ant žalios mygtukų su juodo kryžiaus žemyn,; žalią mygtuką su brūkšneliu, jei norite nutolinti; arba žalių rodyklių gretimoms žemėlapius.


METAR-TAF: